createdAt,value
2023-03-26T00:02:40.254Z,6.41
2023-03-26T00:07:41.610Z,6.24
2023-03-26T00:12:42.609Z,6.21
2023-03-26T00:17:45.636Z,6.15
2023-03-26T00:22:47.126Z,6.10
2023-03-26T00:27:48.779Z,6.21
2023-03-26T00:32:53.970Z,6.18
2023-03-26T00:37:55.106Z,6.30
2023-03-26T00:42:56.277Z,6.37
2023-03-26T00:47:57.166Z,6.20
2023-03-26T00:52:58.149Z,6.18
2023-03-26T00:57:59.000Z,6.07
2023-03-26T01:03:03.841Z,6.03
2023-03-26T01:08:53.876Z,6.04
2023-03-26T01:14:17.384Z,6.00
2023-03-26T01:20:57.914Z,5.89
2023-03-26T01:27:43.642Z,5.88
2023-03-26T01:33:56.241Z,5.80
2023-03-26T01:39:17.920Z,5.73
2023-03-26T01:44:37.535Z,5.78
2023-03-26T01:49:38.422Z,5.87
2023-03-26T01:54:40.522Z,5.76
2023-03-26T02:00:06.304Z,5.84
2023-03-26T02:05:26.658Z,5.82
2023-03-26T02:10:30.275Z,5.89
2023-03-26T02:15:32.234Z,5.98
2023-03-26T02:20:33.041Z,5.94
2023-03-26T02:25:35.018Z,5.86
2023-03-26T02:30:36.999Z,5.89
2023-03-26T02:35:38.051Z,5.80
2023-03-26T02:40:39.567Z,5.72
2023-03-26T02:45:40.836Z,5.72
2023-03-26T02:51:01.334Z,5.71
2023-03-26T02:56:13.292Z,5.75
2023-03-26T03:01:22.644Z,5.65
2023-03-26T03:06:30.156Z,5.59
2023-03-26T03:11:32.639Z,5.56
2023-03-26T03:16:33.679Z,5.53
2023-03-26T03:21:41.551Z,5.63
2023-03-26T03:26:44.981Z,5.71
2023-03-26T03:31:53.246Z,5.84
2023-03-26T03:37:18.501Z,5.95
2023-03-26T03:42:24.461Z,5.98
2023-03-26T03:47:27.312Z,6.05
2023-03-26T03:52:28.683Z,6.04
2023-03-26T03:57:32.643Z,6.00
2023-03-26T04:02:37.362Z,5.98
2023-03-26T04:07:39.528Z,5.88
2023-03-26T04:13:25.742Z,5.99
2023-03-26T04:19:28.733Z,5.87
2023-03-26T04:24:29.597Z,5.89
2023-03-26T04:30:19.829Z,5.94
2023-03-26T04:35:25.155Z,5.71
2023-03-26T04:40:29.715Z,5.85
2023-03-26T04:46:17.465Z,5.84
2023-03-26T04:51:29.960Z,5.90
2023-03-26T04:57:02.112Z,5.88
2023-03-26T05:02:26.295Z,5.74
2023-03-26T05:07:28.806Z,5.40
2023-03-26T05:12:31.051Z,4.90
2023-03-26T05:17:40.736Z,4.91
2023-03-26T05:22:43.706Z,4.68
2023-03-26T05:27:50.692Z,4.78
2023-03-26T05:32:52.872Z,4.76
2023-03-26T05:37:57.911Z,5.05
2023-03-26T05:42:59.443Z,5.11
2023-03-26T05:48:13.648Z,5.08
2023-03-26T05:53:14.865Z,5.11
2023-03-26T05:59:03.957Z,5.17
2023-03-26T06:04:23.407Z,5.26
2023-03-26T06:09:40.188Z,5.13
2023-03-26T06:14:45.124Z,4.98
2023-03-26T06:19:53.395Z,5.09
2023-03-26T06:25:06.699Z,4.97
2023-03-26T06:30:17.830Z,4.85
2023-03-26T06:35:29.209Z,5.10
2023-03-26T06:40:31.795Z,5.17
2023-03-26T06:45:51.693Z,5.21
2023-03-26T06:51:11.083Z,5.34
2023-03-26T06:56:30.820Z,5.33
2023-03-26T07:01:48.292Z,5.16
2023-03-26T07:08:10.676Z,5.06
2023-03-26T07:13:29.987Z,4.97
2023-03-26T07:18:49.462Z,5.02
2023-03-26T07:23:56.586Z,4.97
2023-03-26T07:30:21.803Z,4.86
2023-03-26T07:35:49.971Z,4.92
2023-03-26T07:50:27.037Z,4.91
2023-03-26T07:56:19.603Z,5.02
2023-03-26T08:02:51.947Z,4.96
2023-03-26T08:11:27.739Z,4.92
2023-03-26T08:16:53.377Z,4.82
2023-03-26T08:22:01.445Z,4.78
2023-03-26T08:27:31.312Z,4.87
2023-03-26T08:32:32.931Z,4.74
2023-03-26T08:37:33.763Z,4.75
2023-03-26T08:49:38.963Z,4.74
2023-03-26T08:55:02.781Z,4.89
2023-03-26T09:01:44.717Z,5.03
2023-03-26T09:08:25.118Z,5.13
2023-03-26T09:14:23.787Z,5.38
2023-03-26T09:20:06.721Z,5.02
2023-03-26T09:25:47.664Z,5.22
2023-03-26T09:33:55.146Z,5.04
2023-03-26T09:40:00.888Z,5.11
2023-03-26T09:46:54.092Z,5.21
2023-03-26T09:52:56.286Z,5.39
2023-03-26T09:58:32.574Z,5.62
2023-03-26T10:04:01.138Z,5.88
2023-03-26T10:09:28.093Z,5.84
2023-03-26T10:20:08.238Z,5.99
2023-03-26T10:28:05.330Z,5.93
2023-03-26T10:33:29.960Z,6.22
2023-03-26T10:40:05.201Z,6.16
2023-03-26T10:45:32.429Z,6.73
2023-03-26T10:53:57.364Z,6.90
2023-03-26T10:59:04.166Z,6.68
2023-03-26T11:04:20.837Z,6.40
2023-03-26T11:09:37.884Z,7.17
2023-03-26T11:14:57.853Z,8.22
2023-03-26T11:21:39.533Z,8.60
2023-03-26T11:30:28.933Z,8.74
2023-03-26T11:35:40.903Z,8.85
2023-03-26T11:40:49.803Z,8.76
2023-03-26T11:46:12.182Z,8.69
2023-03-26T11:51:22.672Z,8.51
2023-03-26T11:57:05.195Z,8.44
2023-03-26T12:02:22.666Z,8.40
2023-03-26T12:07:34.297Z,8.17
2023-03-26T12:12:41.901Z,8.13
2023-03-26T12:17:51.768Z,8.22
2023-03-26T12:22:58.599Z,8.94
2023-03-26T12:28:30.208Z,9.74
2023-03-26T12:33:37.988Z,10.26
2023-03-26T12:38:39.924Z,10.33
2023-03-26T12:44:54.242Z,10.88
2023-03-26T12:50:02.754Z,10.64
2023-03-26T12:55:20.872Z,9.39
2023-03-26T13:02:21.845Z,8.26
2023-03-26T13:07:57.042Z,8.95
2023-03-26T13:15:59.027Z,9.54
2023-03-26T13:21:25.905Z,9.20
2023-03-26T13:28:05.565Z,9.02
2023-03-26T13:36:21.939Z,9.14
2023-03-26T13:41:50.941Z,9.12
2023-03-26T13:46:59.093Z,9.32
2023-03-26T13:52:11.169Z,9.96
2023-03-26T13:58:49.959Z,10.09
2023-03-26T14:04:00.305Z,10.13
2023-03-26T14:09:16.984Z,10.43
2023-03-26T14:14:49.114Z,10.37
2023-03-26T14:21:43.241Z,10.05
2023-03-26T14:27:12.419Z,9.72
2023-03-26T14:32:51.344Z,10.03
2023-03-26T14:41:10.165Z,10.50
2023-03-26T14:47:37.509Z,10.54
2023-03-26T14:52:52.587Z,11.15
2023-03-26T15:01:14.064Z,10.80
2023-03-26T15:09:45.515Z,9.91
2023-03-26T15:15:25.162Z,7.15
2023-03-26T15:20:56.291Z,6.51
2023-03-26T15:26:45.138Z,6.31
2023-03-26T15:33:38.172Z,6.69
2023-03-26T15:42:08.413Z,7.71
2023-03-26T15:48:42.818Z,7.83
2023-03-26T15:56:48.421Z,8.17
2023-03-26T16:02:09.257Z,7.50
2023-03-26T16:07:47.348Z,7.23
2023-03-26T16:13:47.678Z,6.90
2023-03-26T16:19:30.591Z,6.77
2023-03-26T16:24:34.507Z,6.67
2023-03-26T16:30:30.144Z,6.62
2023-03-26T16:36:01.134Z,6.67
2023-03-26T16:41:16.902Z,6.72
2023-03-26T16:46:51.226Z,6.64
2023-03-26T16:53:00.221Z,6.54
2023-03-26T16:58:27.243Z,6.53
2023-03-26T17:04:37.566Z,6.52
2023-03-26T17:12:03.873Z,6.48
2023-03-26T17:18:42.762Z,6.38
2023-03-26T17:25:43.967Z,6.44
2023-03-26T17:31:02.689Z,6.30
2023-03-26T17:36:28.624Z,6.30
2023-03-26T17:41:54.151Z,6.26
2023-03-26T17:46:56.946Z,6.25
2023-03-26T17:52:03.576Z,6.19
2023-03-26T17:57:20.600Z,6.27
2023-03-26T18:02:32.603Z,6.08
2023-03-26T18:08:07.448Z,5.96
2023-03-26T18:15:12.602Z,5.69
2023-03-26T18:20:26.202Z,5.32
2023-03-26T18:25:33.054Z,5.24
2023-03-26T18:30:46.200Z,5.10
2023-03-26T18:35:55.864Z,5.10
2023-03-26T18:40:58.431Z,5.06
2023-03-26T18:45:59.997Z,5.12
2023-03-26T18:51:04.945Z,5.10
2023-03-26T18:56:28.160Z,5.19
2023-03-26T19:01:32.580Z,5.27
2023-03-26T19:06:38.385Z,5.31
2023-03-26T19:11:41.768Z,5.27
2023-03-26T19:16:46.823Z,5.25
2023-03-26T19:21:48.085Z,5.25
2023-03-26T19:26:50.123Z,5.18
2023-03-26T19:31:52.498Z,5.26
2023-03-26T19:37:01.243Z,5.24
2023-03-26T19:42:05.727Z,5.27
2023-03-26T19:47:26.807Z,5.32
2023-03-26T19:52:36.025Z,5.21
2023-03-26T19:57:37.161Z,5.26
2023-03-26T20:02:38.590Z,5.30
2023-03-26T20:07:39.527Z,5.32
2023-03-26T20:12:40.346Z,5.25
2023-03-26T20:17:42.064Z,5.25
2023-03-26T20:22:46.160Z,5.15
2023-03-26T20:27:47.019Z,5.21
2023-03-26T20:32:49.553Z,5.19
2023-03-26T20:38:14.131Z,5.12
2023-03-26T20:43:17.666Z,4.95
2023-03-26T20:48:18.425Z,4.97
2023-03-26T20:53:19.652Z,4.88
2023-03-26T20:58:30.728Z,4.86
2023-03-26T21:03:32.992Z,4.82
2023-03-26T21:08:34.100Z,4.78
2023-03-26T21:13:49.159Z,4.76
2023-03-26T21:18:50.965Z,4.78
2023-03-26T21:24:04.264Z,4.89
2023-03-26T21:29:05.213Z,4.75
2023-03-26T21:34:07.627Z,4.80
2023-03-26T21:39:10.514Z,4.77
2023-03-26T21:44:13.388Z,4.74
2023-03-26T21:49:16.431Z,4.71
2023-03-26T21:54:27.579Z,4.59
2023-03-26T22:04:30.794Z,4.47
2023-03-26T22:09:36.476Z,4.44
2023-03-26T22:14:38.041Z,4.42
2023-03-26T22:19:38.850Z,4.39
2023-03-26T22:24:39.796Z,4.41
2023-03-26T22:29:41.424Z,4.39
2023-03-26T22:34:44.309Z,4.30
2023-03-26T22:39:45.057Z,4.19
2023-03-26T22:44:46.027Z,4.08
2023-03-26T22:49:46.810Z,3.98
2023-03-26T22:54:47.599Z,3.92
2023-03-26T22:59:48.718Z,3.87
2023-03-26T23:04:49.842Z,3.73
2023-03-26T23:09:52.271Z,3.67
2023-03-26T23:14:53.117Z,3.51
2023-03-26T23:19:53.930Z,3.46
2023-03-26T23:24:54.827Z,3.43
2023-03-26T23:29:55.816Z,3.50
2023-03-26T23:34:57.043Z,3.44
2023-03-26T23:39:58.480Z,3.33
2023-03-26T23:44:59.208Z,3.32
2023-03-26T23:50:03.784Z,3.27
2023-03-26T23:55:05.171Z,3.18
